LIPZLIBD

Guest
Details From LIPZ - Venezia Tessera
To LIBD - Bari Palese Macchie
Flight Number -
Tags decoded
Created
Modified
Stats Distance 325 nm / 602 km
Max Altitude 0 ft / 0 m
Waypoints 3
Social Downloads 10
Likes 0
Share

Download

Looking for another format? Having issues loading an existing format? Contact us
Advertisement - Login to hide

Notes

Requested: LIPZ BASOG UY941 ARDAM UL612 VIE LIBD Unmatched points: BASOG UY941 ARDAM UL612

Route

LIPZ VIE LIBD

ID Type Via Altitude (ft/m) Position (lat/lon) Dist (leg/tot) Name
O LIPZ APT - 0 / 0 45.50479 / 12.34969 - / 0 nm Venezia Tessera
VIE VOR - 0 / 0 41.91274 / 16.04914 268 / 268 nm VIESTE VOR-DME
O LIBD APT - 0 / 0 41.13787 / 16.75832 56 / 325 nm Bari Palese Macchie

Altitude Profile

Advertisement - Login to hide

Weather


0- 5 10 15 20 25 30 35+ Temperature / °C

Clouds and Precipitation
Forecast for 2020-10-27 00:00 UTC. Updated 3 hours ago

Ground ~20,000 ft ~40,000 ft Winds

LIPZ

Details ICAO LIPZ (VCE)
Name Venezia-Tessera "Marco Polo"
Region Italy
Timezone Europe/Rome (UTC+1.0)
Stats Elevation 4 ft / 1 m (AMSL)
Location 45.504800° 12.349700°
Runways 2
Magnetic Variation 3.505° E

METAR

LIPZ 270020Z 34005KT 9999 -RA BKN070 14/13 Q1005 NOSIG

Decode

TAF

TAF LIPZ 262300Z 2700/2806 16012KT 9999 SCT030 BKN050 BECMG 2700/2703 VRB05KT TEMPO 2700/2704 4000 SHRA BECMG 2712/2715 05010KT

Decode

Departure Runways

ID Width Length Bearing (true/mag) Surface Threshold Overrun Markings Lighting
04L 148 ft / 45 m 9,129 ft / 2,782 m 42.03° / 38.52° ASPHALT 318 ft / 97 m 0 ft / 0 m PREC-APP EDGE THRESHOLD MALSR REIL-OMNI
04R 148 ft / 45 m 10,836 ft / 3,303 m 42.03° / 38.52° ASPHALT 0 ft / 0 m 0 ft / 0 m PREC-APP CENTERLINE EDGE THRESHOLD SSALR REIL-OMNI
22L 148 ft / 45 m 10,836 ft / 3,303 m 222.05° / 218.54° ASPHALT 0 ft / 0 m 0 ft / 0 m PREC-APP CENTERLINE EDGE THRESHOLD SALS REIL-OMNI
22R 148 ft / 45 m 9,129 ft / 2,782 m 222.05° / 218.54° ASPHALT 0 ft / 0 m 0 ft / 0 m PREC-APP EDGE THRESHOLD SALS REIL-OMNI

LIBD

Details ICAO LIBD (BRI)
Name Bari-Palese "Karol Wojtyla"
Region Italy
Timezone Europe/Rome (UTC+1.0)
Stats Elevation 173 ft / 53 m (AMSL)
Location 41.137900° 16.758300°
Runways 1
Magnetic Variation 4.031° E

METAR

LIBD 270020Z 20006KT CAVOK 12/09 Q1012

Decode

TAF

TAF LIBD 262300Z 2700/2724 17008KT 9999 SCT040= TAF LIBP 262300Z 2700/2724 24012KT 9999 SCT040 BECMG 2701/2703 VRB05KT

Decode

Destination Runways

ID Width Length Bearing (true/mag) Surface Threshold Overrun Markings Lighting
07 148 ft / 45 m 9,260 ft / 2,823 m 69.40° / 65.36° ASPHALT 1,240 ft / 378 m 0 ft / 0 m PREC-APP CENTERLINE EDGE THRESHOLD ALSF-II REIL-OMNI
25 148 ft / 45 m 9,260 ft / 2,823 m 249.42° / 245.39° ASPHALT 0 ft / 0 m 0 ft / 0 m PREC-APP CENTERLINE EDGE THRESHOLD SALS REIL-OMNI

Approach Navaids

Runway Type Ident Frequency Range Bearing (true/mag) Slope Elevation
07 DME BAP 111.35 MHz 18 nm / 33 km - - 183 ft / 56 m (AMSL)
07 GS BAP 111.35 MHz 10 nm / 19 km 69.39° / 65.36 ° 3.32° 175 ft / 53 m (AMSL)
07 LOC-ILS BAP 111.35 MHz 18 nm / 33 km 69.39° / 65.36 ° - 175 ft / 53 m (AMSL)
07 OM OM - - 69.25° / 65.22 ° - 177 ft / 54 m (AMSL)

Popular Alternatives